createdAt,value
2019-02-05T00:02:09.707Z,99266.27
2019-02-05T00:04:40.243Z,99265.48
2019-02-05T00:07:10.907Z,99263.22
2019-02-05T00:09:44.151Z,99266.42
2019-02-05T00:12:14.679Z,99268.20
2019-02-05T00:14:45.248Z,99266.16
2019-02-05T00:17:15.845Z,99261.02
2019-02-05T00:19:48.034Z,99262.08
2019-02-05T00:22:18.879Z,99263.45
2019-02-05T00:24:49.555Z,99268.34
2019-02-05T00:27:21.225Z,99268.45
2019-02-05T00:29:51.924Z,99274.27
2019-02-05T00:32:22.725Z,99273.80
2019-02-05T00:34:54.892Z,99286.52
2019-02-05T00:37:27.329Z,99287.24
2019-02-05T00:39:57.900Z,99286.71
2019-02-05T00:42:28.693Z,99286.05
2019-02-05T00:44:59.218Z,99284.65
2019-02-05T00:47:32.240Z,99284.49
2019-02-05T00:50:02.032Z,99279.80
2019-02-05T00:52:33.146Z,99277.34
2019-02-05T00:55:04.608Z,99278.52
2019-02-05T00:57:35.287Z,99279.01
2019-02-05T01:00:19.655Z,99282.88
2019-02-05T01:02:50.616Z,99279.06
2019-02-05T01:05:21.462Z,99259.53
2019-02-05T01:07:52.381Z,99262.56
2019-02-05T01:10:25.140Z,99261.77
2019-02-05T01:12:56.252Z,99259.67
2019-02-05T01:15:29.468Z,99251.50
2019-02-05T01:18:02.045Z,99245.75
2019-02-05T01:20:32.880Z,99239.07
2019-02-05T01:23:03.459Z,99238.50
2019-02-05T01:25:34.824Z,99246.75
2019-02-05T01:28:05.522Z,99250.66
2019-02-05T01:30:36.303Z,99240.90
2019-02-05T01:33:06.939Z,99249.95
2019-02-05T01:35:37.533Z,99238.41
2019-02-05T01:38:08.432Z,99234.71
2019-02-05T01:40:38.983Z,99232.34
2019-02-05T01:43:09.534Z,99232.42
2019-02-05T01:45:40.068Z,99234.14
2019-02-05T01:48:10.905Z,99239.89
2019-02-05T01:50:41.399Z,99230.39
2019-02-05T01:53:11.903Z,99234.96
2019-02-05T01:55:42.506Z,99226.32
2019-02-05T01:58:13.169Z,99230.81
2019-02-05T02:00:43.945Z,99222.63
2019-02-05T02:03:14.455Z,99214.47
2019-02-05T02:05:45.301Z,99213.41
2019-02-05T02:08:16.023Z,99210.31
2019-02-05T02:10:46.867Z,99208.00
2019-02-05T02:13:17.369Z,99213.11
2019-02-05T02:15:48.082Z,99210.31
2019-02-05T02:18:19.053Z,99211.20
2019-02-05T02:20:49.548Z,99211.47
2019-02-05T02:23:21.354Z,99215.05
2019-02-05T02:25:51.941Z,99216.02
2019-02-05T02:28:22.890Z,99205.34
2019-02-05T02:30:53.409Z,99194.73
2019-02-05T02:33:24.267Z,99193.19
2019-02-05T02:35:55.042Z,99193.56
2019-02-05T02:38:25.603Z,99190.20
2019-02-05T02:40:56.186Z,99180.72
2019-02-05T02:43:27.258Z,99176.36
2019-02-05T02:45:58.173Z,99165.94
2019-02-05T02:48:28.692Z,99164.68
2019-02-05T02:50:59.180Z,99163.50
2019-02-05T02:53:29.674Z,99156.20
2019-02-05T02:56:00.198Z,99157.97
2019-02-05T02:58:31.392Z,99168.70
2019-02-05T03:01:02.322Z,99169.23
2019-02-05T03:03:33.121Z,99175.77
2019-02-05T03:06:03.710Z,99167.15
2019-02-05T03:08:34.321Z,99171.58
2019-02-05T03:11:05.508Z,99174.21
2019-02-05T03:13:36.713Z,99168.78
2019-02-05T03:16:07.184Z,99169.14
2019-02-05T03:18:37.687Z,99172.44
2019-02-05T03:21:08.378Z,99174.55
2019-02-05T03:23:39.104Z,99174.94
2019-02-05T03:26:09.611Z,99180.50
2019-02-05T03:28:40.132Z,99193.33
2019-02-05T03:31:10.662Z,99189.23
2019-02-05T03:33:41.314Z,99194.25
2019-02-05T03:36:12.071Z,99202.95
2019-02-05T03:38:42.590Z,99204.58
2019-02-05T03:41:13.288Z,99194.59
2019-02-05T03:43:44.419Z,99181.70
2019-02-05T03:46:16.918Z,99181.89
2019-02-05T03:48:49.890Z,99178.72
2019-02-05T03:52:08.864Z,99173.34
2019-02-05T03:55:35.682Z,99188.31
2019-02-05T03:58:53.955Z,99199.34
2019-02-05T04:02:05.553Z,99202.02
2019-02-05T04:05:34.063Z,99203.38
2019-02-05T04:09:00.242Z,99199.40
2019-02-05T04:12:28.785Z,99198.09
2019-02-05T04:15:45.298Z,99212.54
2019-02-05T04:19:00.492Z,99221.42
2019-02-05T04:22:44.629Z,99218.78
2019-02-05T04:25:59.191Z,99219.08
2019-02-05T04:29:41.737Z,99209.05
2019-02-05T04:33:11.641Z,99224.79
2019-02-05T04:36:40.867Z,99234.00
2019-02-05T04:40:20.771Z,99230.35
2019-02-05T04:43:51.794Z,99227.03
2019-02-05T04:47:13.843Z,99238.63
2019-02-05T04:51:05.678Z,99228.27
2019-02-05T04:54:21.585Z,99229.26
2019-02-05T04:57:41.469Z,99222.20
2019-02-05T05:01:30.525Z,99223.48
2019-02-05T05:04:49.512Z,99220.08
2019-02-05T05:08:14.602Z,99231.14
2019-02-05T05:10:45.488Z,99229.83
2019-02-05T05:13:16.099Z,99226.27
2019-02-05T05:15:46.661Z,99230.49
2019-02-05T05:18:17.416Z,99233.23
2019-02-05T05:20:48.850Z,99231.39
2019-02-05T05:23:19.843Z,99235.45
2019-02-05T05:25:50.414Z,99233.63
2019-02-05T05:28:22.216Z,99232.64
2019-02-05T05:30:53.457Z,99235.99
2019-02-05T05:33:24.469Z,99245.94
2019-02-05T05:35:55.373Z,99240.79
2019-02-05T05:38:26.141Z,99241.32
2019-02-05T05:40:56.643Z,99244.34
2019-02-05T05:43:27.695Z,99249.21
2019-02-05T05:45:58.801Z,99254.55
2019-02-05T05:48:29.570Z,99261.33
2019-02-05T05:51:00.469Z,99256.41
2019-02-05T05:53:31.095Z,99256.89
2019-02-05T05:56:01.637Z,99260.88
2019-02-05T05:58:32.693Z,99259.14
2019-02-05T06:01:03.630Z,99253.66
2019-02-05T06:03:34.489Z,99257.45
2019-02-05T06:06:05.392Z,99260.25
2019-02-05T06:08:36.079Z,99262.41
2019-02-05T06:11:06.750Z,99260.30
2019-02-05T06:13:37.768Z,99254.02
2019-02-05T06:16:08.647Z,99267.41
2019-02-05T06:18:39.509Z,99282.97
2019-02-05T06:21:10.037Z,99279.03
2019-02-05T06:23:40.669Z,99287.03
2019-02-05T06:26:11.453Z,99285.24
2019-02-05T06:28:42.505Z,99298.05
2019-02-05T06:31:13.111Z,99296.24
2019-02-05T06:33:46.652Z,99295.42
2019-02-05T06:36:17.419Z,99299.19
2019-02-05T06:38:47.962Z,99302.41
2019-02-05T06:41:18.569Z,99300.34
2019-02-05T06:43:49.206Z,99301.95
2019-02-05T06:46:19.739Z,99308.77
2019-02-05T06:48:50.252Z,99303.06
2019-02-05T06:51:22.160Z,99307.72
2019-02-05T06:53:52.688Z,99315.92
2019-02-05T06:56:23.647Z,99311.25
2019-02-05T06:58:54.166Z,99311.60
2019-02-05T07:01:25.016Z,99305.28
2019-02-05T07:03:55.866Z,99314.28
2019-02-05T07:06:26.657Z,99331.98
2019-02-05T07:08:57.136Z,99339.11
2019-02-05T07:11:27.657Z,99333.94
2019-02-05T07:13:58.340Z,99329.39
2019-02-05T07:16:29.199Z,99334.97
2019-02-05T07:18:59.928Z,99331.77
2019-02-05T07:21:30.715Z,99332.02
2019-02-05T07:24:01.540Z,99331.51
2019-02-05T07:26:32.073Z,99335.06
2019-02-05T07:29:02.661Z,99334.83
2019-02-05T07:31:33.457Z,99338.48
2019-02-05T07:34:03.966Z,99336.38
2019-02-05T07:36:34.743Z,99346.69
2019-02-05T07:39:08.623Z,99344.22
2019-02-05T07:41:39.507Z,99345.06
2019-02-05T07:44:09.981Z,99341.34
2019-02-05T07:46:40.687Z,99347.16
2019-02-05T07:49:11.229Z,99348.48
2019-02-05T07:51:41.813Z,99348.30
2019-02-05T07:54:12.344Z,99339.48
2019-02-05T07:56:42.818Z,99345.77
2019-02-05T07:59:13.298Z,99344.55
2019-02-05T08:01:43.814Z,99349.59
2019-02-05T08:04:14.295Z,99348.86
2019-02-05T08:06:44.799Z,99348.58
2019-02-05T08:09:15.274Z,99348.62
2019-02-05T08:11:45.786Z,99349.16
2019-02-05T08:14:16.337Z,99345.75
2019-02-05T08:16:48.031Z,99345.72
2019-02-05T08:19:19.390Z,99340.56
2019-02-05T08:21:49.957Z,99335.21
2019-02-05T08:24:21.956Z,99335.70
2019-02-05T08:26:52.767Z,99334.83
2019-02-05T08:29:23.353Z,99342.22
2019-02-05T08:31:53.829Z,99344.66
2019-02-05T08:34:24.339Z,99347.92
2019-02-05T08:36:54.943Z,99353.03
2019-02-05T08:39:25.772Z,99350.00
2019-02-05T08:41:56.764Z,99346.26
2019-02-05T08:44:27.274Z,99351.16
2019-02-05T08:46:57.813Z,99351.36
2019-02-05T08:49:28.339Z,99357.73
2019-02-05T08:51:58.987Z,99354.73
2019-02-05T08:54:29.825Z,99351.02
2019-02-05T08:57:00.846Z,99353.56
2019-02-05T08:59:31.300Z,99360.95
2019-02-05T09:02:01.879Z,99357.55
2019-02-05T09:04:32.674Z,99365.43
2019-02-05T09:07:03.187Z,99369.93
2019-02-05T09:09:34.090Z,99371.30
2019-02-05T09:12:04.988Z,99378.75
2019-02-05T09:14:36.141Z,99371.97
2019-02-05T09:17:06.911Z,99377.02
2019-02-05T09:19:37.482Z,99380.55
2019-02-05T09:22:08.151Z,99378.83
2019-02-05T09:24:38.980Z,99382.48
2019-02-05T09:27:10.001Z,99373.44
2019-02-05T09:29:40.558Z,99379.97
2019-02-05T09:32:11.140Z,99384.11
2019-02-05T09:34:41.958Z,99380.38
2019-02-05T09:37:12.518Z,99381.72
2019-02-05T09:39:43.129Z,99382.56
2019-02-05T09:42:14.019Z,99382.78
2019-02-05T09:44:44.509Z,99384.88
2019-02-05T09:47:15.156Z,99384.31
2019-02-05T09:49:46.034Z,99383.63
2019-02-05T09:52:16.522Z,99386.88
2019-02-05T09:54:47.225Z,99387.98
2019-02-05T09:57:18.119Z,99395.83
2019-02-05T09:59:48.912Z,99391.52
2019-02-05T10:02:19.577Z,99394.27
2019-02-05T10:04:50.061Z,99392.78
2019-02-05T10:07:21.716Z,99394.85
2019-02-05T10:09:52.481Z,99387.88
2019-02-05T10:12:23.373Z,99395.05
2019-02-05T10:14:54.139Z,99396.17
2019-02-05T10:17:24.667Z,99400.94
2019-02-05T10:19:55.213Z,99405.89
2019-02-05T10:22:26.361Z,99399.13
2019-02-05T10:24:57.317Z,99400.96
2019-02-05T10:27:28.188Z,99394.84
2019-02-05T10:29:59.620Z,99391.98
2019-02-05T10:32:30.376Z,99390.94
2019-02-05T10:35:02.755Z,99387.45
2019-02-05T10:37:33.614Z,99388.98
2019-02-05T10:40:04.575Z,99388.47
2019-02-05T10:42:35.462Z,99384.42
2019-02-05T10:45:08.559Z,99383.50
2019-02-05T10:47:40.921Z,99381.92
2019-02-05T10:50:13.761Z,99385.10
2019-02-05T10:52:44.885Z,99384.45
2019-02-05T10:55:17.025Z,99378.02
2019-02-05T10:57:47.779Z,99379.76
2019-02-05T11:00:25.868Z,99383.90
2019-02-05T11:02:59.239Z,99382.17
2019-02-05T11:05:31.821Z,99388.61
2019-02-05T11:08:02.626Z,99377.50
2019-02-05T11:10:33.491Z,99378.14
2019-02-05T11:13:05.063Z,99373.70
2019-02-05T11:15:35.561Z,99381.53
2019-02-05T11:18:09.435Z,99374.41
2019-02-05T11:20:40.436Z,99376.44
2019-02-05T11:23:11.254Z,99380.88
2019-02-05T11:25:42.173Z,99377.53
2019-02-05T11:28:12.781Z,99379.59
2019-02-05T11:30:45.779Z,99376.81
2019-02-05T11:33:16.877Z,99376.05
2019-02-05T11:35:47.485Z,99373.83
2019-02-05T11:38:18.236Z,99377.20
2019-02-05T11:40:49.203Z,99372.93
2019-02-05T11:43:19.713Z,99375.80
2019-02-05T11:45:50.508Z,99366.68
2019-02-05T11:48:22.477Z,99373.66
2019-02-05T11:50:53.251Z,99374.10
2019-02-05T11:53:24.318Z,99373.45
2019-02-05T11:55:54.888Z,99375.13
2019-02-05T11:58:25.728Z,99376.55
2019-02-05T12:01:00.643Z,99369.33
2019-02-05T12:03:31.591Z,99377.25
2019-02-05T12:06:02.365Z,99371.02
2019-02-05T12:08:32.871Z,99368.67
2019-02-05T12:11:03.417Z,99362.03
2019-02-05T12:13:34.517Z,99363.64
2019-02-05T12:16:05.713Z,99368.37
2019-02-05T12:18:36.491Z,99368.94
2019-02-05T12:21:07.348Z,99359.93
2019-02-05T12:23:38.526Z,99365.80
2019-02-05T12:26:09.446Z,99361.09
2019-02-05T12:28:39.954Z,99350.26
2019-02-05T12:31:10.759Z,99343.38
2019-02-05T12:33:41.544Z,99340.84
2019-02-05T12:36:12.466Z,99342.23
2019-02-05T12:38:43.314Z,99332.79
2019-02-05T12:41:13.872Z,99331.52
2019-02-05T12:43:44.355Z,99326.91
2019-02-05T12:46:14.937Z,99317.74
2019-02-05T12:48:45.556Z,99322.64
2019-02-05T12:51:16.484Z,99323.95
2019-02-05T12:53:47.012Z,99328.81
2019-02-05T12:56:17.594Z,99319.23
2019-02-05T12:58:48.410Z,99326.90
2019-02-05T13:01:18.948Z,99325.66
2019-02-05T13:03:49.581Z,99316.47
2019-02-05T13:06:20.396Z,99316.43
2019-02-05T13:08:50.960Z,99314.78
2019-02-05T13:11:22.827Z,99314.42
2019-02-05T13:13:53.490Z,99302.38
2019-02-05T13:16:24.277Z,99304.21
2019-02-05T13:18:54.841Z,99305.23
2019-02-05T13:21:25.619Z,99302.59
2019-02-05T13:23:56.461Z,99299.91
2019-02-05T13:26:27.461Z,99305.57
2019-02-05T13:28:57.959Z,99307.44
2019-02-05T13:31:28.854Z,99305.63
2019-02-05T13:33:59.569Z,99304.73
2019-02-05T13:36:30.433Z,99308.52
2019-02-05T13:39:01.508Z,99307.94
2019-02-05T13:41:32.629Z,99306.08
2019-02-05T13:44:03.190Z,99296.41
2019-02-05T13:46:34.021Z,99301.77
2019-02-05T13:49:04.990Z,99292.53
2019-02-05T13:51:35.786Z,99297.95
2019-02-05T13:54:06.976Z,99293.66
2019-02-05T13:56:37.791Z,99294.92
2019-02-05T13:59:08.597Z,99298.34
2019-02-05T14:01:39.410Z,99294.24
2019-02-05T14:04:09.959Z,99292.94
2019-02-05T14:06:40.784Z,99293.34
2019-02-05T14:09:14.237Z,99299.83
2019-02-05T14:11:44.777Z,99295.54
2019-02-05T14:14:15.656Z,99297.73
2019-02-05T14:16:46.162Z,99295.34
2019-02-05T14:19:16.972Z,99297.94
2019-02-05T14:21:47.776Z,99308.86
2019-02-05T14:24:18.639Z,99303.52
2019-02-05T14:26:49.150Z,99307.37
2019-02-05T14:29:19.795Z,99310.64
2019-02-05T14:31:50.724Z,99307.52
2019-02-05T14:34:23.040Z,99307.53
2019-02-05T14:36:53.911Z,99308.53
2019-02-05T14:39:24.761Z,99304.36
2019-02-05T14:41:55.567Z,99301.30
2019-02-05T14:44:26.639Z,99303.55
2019-02-05T14:46:57.235Z,99304.58
2019-02-05T14:49:28.044Z,99293.00
2019-02-05T14:51:58.867Z,99298.64
2019-02-05T14:54:29.641Z,99294.47
2019-02-05T14:57:00.205Z,99299.82
2019-02-05T14:59:31.019Z,99300.86
2019-02-05T15:02:01.867Z,99300.47
2019-02-05T15:04:33.026Z,99298.97
2019-02-05T15:07:06.191Z,99300.44
2019-02-05T15:09:39.919Z,99297.83
2019-02-05T15:12:10.724Z,99300.44
2019-02-05T15:14:41.274Z,99299.77
2019-02-05T15:17:11.911Z,99294.99
2019-02-05T15:19:42.738Z,99297.98
2019-02-05T15:22:13.535Z,99296.75
2019-02-05T15:24:45.216Z,99299.58
2019-02-05T15:27:15.903Z,99303.32
2019-02-05T15:29:46.738Z,99296.41
2019-02-05T15:32:36.214Z,99298.92
2019-02-05T15:35:07.777Z,99299.80
2019-02-05T15:37:38.306Z,99303.45
2019-02-05T15:40:10.506Z,99298.36
2019-02-05T15:42:41.400Z,99298.41
2019-02-05T15:45:12.757Z,99296.20
2019-02-05T15:47:43.826Z,99296.83
2019-02-05T15:50:14.588Z,99295.09
2019-02-05T15:52:45.161Z,99290.95
2019-02-05T15:55:17.644Z,99297.06
2019-02-05T15:57:48.367Z,99292.65
2019-02-05T16:00:19.392Z,99296.08
2019-02-05T16:02:49.934Z,99292.54
2019-02-05T16:05:20.826Z,99298.63
2019-02-05T16:07:51.408Z,99291.30
2019-02-05T16:10:23.215Z,99290.53
2019-02-05T16:12:53.959Z,99294.94
2019-02-05T16:15:24.833Z,99296.39
2019-02-05T16:17:55.400Z,99292.37
2019-02-05T16:20:26.234Z,99294.29
2019-02-05T16:22:56.868Z,99294.57
2019-02-05T16:25:27.397Z,99296.20
2019-02-05T16:27:58.103Z,99300.97
2019-02-05T16:30:29.106Z,99292.56
2019-02-05T16:32:59.892Z,99298.20
2019-02-05T16:35:30.730Z,99304.52
2019-02-05T16:38:01.319Z,99302.56
2019-02-05T16:40:32.319Z,99310.23
2019-02-05T16:43:03.123Z,99315.90
2019-02-05T16:45:34.216Z,99317.45
2019-02-05T16:48:05.412Z,99313.73
2019-02-05T16:50:39.953Z,99324.16
2019-02-05T16:53:10.840Z,99324.92
2019-02-05T16:55:41.347Z,99326.28
2019-02-05T16:58:12.125Z,99328.70
2019-02-05T17:00:42.818Z,99330.66
2019-02-05T17:03:13.389Z,99341.58
2019-02-05T17:05:44.259Z,99338.06
2019-02-05T17:08:15.023Z,99340.82
2019-02-05T17:10:45.595Z,99343.91
2019-02-05T17:13:16.235Z,99346.34
2019-02-05T17:15:47.121Z,99346.53
2019-02-05T17:18:23.619Z,99348.82
2019-02-05T17:20:50.436Z,99355.28
2019-02-05T17:23:20.978Z,99354.39
2019-02-05T17:25:51.515Z,99361.98
2019-02-05T17:28:23.548Z,99363.73
2019-02-05T17:30:54.080Z,99362.19
2019-02-05T17:33:24.593Z,99365.89
2019-02-05T17:35:55.353Z,99359.14
2019-02-05T17:38:26.317Z,99366.84
2019-02-05T17:40:57.087Z,99367.25
2019-02-05T17:43:27.776Z,99366.88
2019-02-05T17:45:58.460Z,99362.92
2019-02-05T17:48:29.300Z,99370.55
2019-02-05T17:51:00.129Z,99378.20
2019-02-05T17:53:30.732Z,99378.28
2019-02-05T17:56:01.332Z,99382.56
2019-02-05T17:58:32.183Z,99380.47
2019-02-05T18:01:15.828Z,99381.91
2019-02-05T18:03:46.439Z,99380.12
2019-02-05T18:06:17.318Z,99380.78
2019-02-05T18:08:48.158Z,99377.58
2019-02-05T18:11:18.763Z,99386.81
2019-02-05T18:13:49.467Z,99387.75
2019-02-05T18:16:21.164Z,99390.69
2019-02-05T18:18:52.033Z,99393.98
2019-02-05T18:21:23.438Z,99389.73
2019-02-05T18:23:54.446Z,99395.70
2019-02-05T18:26:25.334Z,99395.87
2019-02-05T18:28:56.227Z,99400.63
2019-02-05T18:31:27.162Z,99404.03
2019-02-05T18:33:57.830Z,99398.20
2019-02-05T18:36:28.716Z,99399.12
2019-02-05T18:38:59.607Z,99399.23
2019-02-05T18:41:30.550Z,99401.61
2019-02-05T18:44:01.139Z,99392.30
2019-02-05T18:46:31.681Z,99400.63
2019-02-05T18:49:05.094Z,99397.61
2019-02-05T18:51:34.583Z,99398.05
2019-02-05T18:54:05.571Z,99399.36
2019-02-05T18:56:36.474Z,99398.70
2019-02-05T18:59:07.205Z,99392.41
2019-02-05T19:01:37.835Z,99384.78
2019-02-05T19:04:08.482Z,99383.81
2019-02-05T19:06:39.415Z,99380.92
2019-02-05T19:09:14.797Z,99388.16
2019-02-05T19:11:45.705Z,99387.12
2019-02-05T19:14:16.360Z,99381.41
2019-02-05T19:16:47.325Z,99372.36
2019-02-05T19:19:18.342Z,99371.16
2019-02-05T19:21:48.896Z,99370.41
2019-02-05T19:24:36.917Z,99377.19
2019-02-05T19:27:07.742Z,99379.20
2019-02-05T19:29:38.761Z,99389.72
2019-02-05T19:32:09.562Z,99391.55
2019-02-05T19:34:40.692Z,99378.94
2019-02-05T19:37:11.489Z,99383.39
2019-02-05T19:39:42.035Z,99379.70
2019-02-05T19:42:12.973Z,99383.76
2019-02-05T19:44:48.490Z,99382.20
2019-02-05T19:47:23.477Z,99384.78
2019-02-05T19:49:56.866Z,99384.52
2019-02-05T19:52:27.904Z,99383.70
2019-02-05T19:54:58.598Z,99383.86
2019-02-05T19:57:29.955Z,99380.91
2019-02-05T20:00:00.770Z,99379.91
2019-02-05T20:02:31.399Z,99378.16
2019-02-05T20:05:02.242Z,99375.44
2019-02-05T20:07:32.843Z,99374.13
2019-02-05T20:10:03.614Z,99373.63
2019-02-05T20:12:34.430Z,99375.55
2019-02-05T20:15:07.429Z,99373.78
2019-02-05T20:17:38.047Z,99379.38
2019-02-05T20:20:10.991Z,99377.71
2019-02-05T20:22:41.782Z,99384.39
2019-02-05T20:25:13.998Z,99380.93
2019-02-05T20:27:44.709Z,99383.16
2019-02-05T20:30:17.034Z,99383.86
2019-02-05T20:32:47.563Z,99389.31
2019-02-05T20:35:18.561Z,99386.29
2019-02-05T20:37:49.358Z,99391.75
2019-02-05T20:40:20.973Z,99390.80
2019-02-05T20:42:51.634Z,99392.49
2019-02-05T20:45:24.099Z,99393.86
2019-02-05T20:47:56.063Z,99394.89
2019-02-05T20:50:26.883Z,99396.25
2019-02-05T20:52:57.739Z,99391.21
2019-02-05T20:55:28.630Z,99397.01
2019-02-05T20:57:59.518Z,99400.98
2019-02-05T21:00:30.563Z,99402.53
2019-02-05T21:03:01.754Z,99402.12
2019-02-05T21:05:32.729Z,99405.97
2019-02-05T21:08:03.543Z,99412.38
2019-02-05T21:10:34.585Z,99410.18
2019-02-05T21:13:05.543Z,99414.49
2019-02-05T21:15:36.366Z,99409.58
2019-02-05T21:18:07.028Z,99419.02
2019-02-05T21:20:37.683Z,99416.08
2019-02-05T21:23:08.549Z,99418.05
2019-02-05T21:25:39.484Z,99425.59
2019-02-05T21:28:10.165Z,99427.16
2019-02-05T21:30:41.060Z,99426.99
2019-02-05T21:33:11.610Z,99423.58
2019-02-05T21:35:42.527Z,99428.23
2019-02-05T21:38:13.237Z,99406.16
2019-02-05T21:40:43.898Z,99423.77
2019-02-05T21:43:14.791Z,99420.05
2019-02-05T21:45:45.792Z,99423.47
2019-02-05T21:48:16.581Z,99424.19
2019-02-05T21:50:47.172Z,99416.38
2019-02-05T21:53:17.789Z,99417.91
2019-02-05T21:55:48.531Z,99415.64
2019-02-05T21:58:19.080Z,99402.27
2019-02-05T22:00:49.779Z,99398.85
2019-02-05T22:03:20.675Z,99403.58
2019-02-05T22:05:51.691Z,99403.68
2019-02-05T22:08:23.982Z,99406.66
2019-02-05T22:10:54.605Z,99400.16
2019-02-05T22:13:25.643Z,99399.86
2019-02-05T22:15:56.229Z,99399.89
2019-02-05T22:18:26.992Z,99393.60
2019-02-05T22:20:57.701Z,99392.56
2019-02-05T22:23:28.586Z,99394.98
2019-02-05T22:25:59.121Z,99388.94
2019-02-05T22:28:31.173Z,99379.06
2019-02-05T22:31:01.787Z,99378.02
2019-02-05T22:33:33.045Z,99374.95
2019-02-05T22:36:03.956Z,99373.34
2019-02-05T22:38:34.944Z,99375.42
2019-02-05T22:41:05.842Z,99380.80
2019-02-05T22:43:36.482Z,99382.73
2019-02-05T22:46:07.064Z,99378.63
2019-02-05T22:48:38.111Z,99374.16
2019-02-05T22:51:08.773Z,99346.03
2019-02-05T22:53:39.922Z,99370.69
2019-02-05T22:56:10.663Z,99370.77
2019-02-05T22:58:41.681Z,99373.30
2019-02-05T23:01:46.373Z,99369.50
2019-02-05T23:04:50.654Z,99372.19
2019-02-05T23:07:23.788Z,99369.51
2019-02-05T23:11:03.087Z,99366.06
2019-02-05T23:13:27.959Z,99361.83
2019-02-05T23:15:58.939Z,99363.37
2019-02-05T23:18:29.781Z,99353.42
2019-02-05T23:21:00.617Z,99353.75
2019-02-05T23:23:31.210Z,99355.12
2019-02-05T23:26:01.776Z,99356.81
2019-02-05T23:28:33.014Z,99355.16
2019-02-05T23:31:04.089Z,99354.95
2019-02-05T23:33:35.028Z,99357.83
2019-02-05T23:36:05.864Z,99359.34
2019-02-05T23:38:36.733Z,99357.59
2019-02-05T23:41:07.339Z,99359.19
2019-02-05T23:43:38.093Z,99357.25
2019-02-05T23:46:08.869Z,99353.89
2019-02-05T23:48:39.692Z,99356.32
2019-02-05T23:51:10.241Z,99363.16
2019-02-05T23:53:40.776Z,99359.39
2019-02-05T23:56:11.758Z,99360.53
2019-02-05T23:58:42.263Z,99360.02
